Time;durP1;ratioP1;P1;durP2;ratioP2;P2;SDS_P1;SDS_P2;PMS_P1;PMS_P2;Temp;Humidity;BMP_temperature;BMP_pressure;BME280_temperature;BME280_humidity;BME280_pressure;Samples;Min_cycle;Max_cycle;Signal;HPM_P1;HPM_P2
2021/01/10 00:00:14;;;;;;;11.93;7.77;;;0.10;91.90;;;;;;5045478;28;20028;-84
2021/01/10 00:02:44;;;;;;;12.70;8.37;;;0.10;91.90;;;;;;5042258;28;20388;-84
2021/01/10 00:05:42;;;;;;;14.03;8.27;;;0.10;91.90;;;;;;5060666;28;20395;-84
2021/01/10 00:08:06;;;;;;;13.83;8.47;;;0.10;91.90;;;;;;5078776;28;20028;-84
2021/01/10 00:10:33;;;;;;;14.57;7.93;;;0.10;91.90;;;;;;5061704;28;20028;-84
2021/01/10 00:13:00;;;;;;;14.40;8.03;;;0.00;91.80;;;;;;5061382;28;20048;-84
2021/01/10 00:15:26;;;;;;;12.17;8.40;;;0.00;91.90;;;;;;5079135;28;20013;-83
2021/01/10 00:17:53;;;;;;;15.47;8.30;;;0.00;91.90;;;;;;5061642;28;20444;-84
2021/01/10 00:20:19;;;;;;;12.87;8.23;;;0.00;91.80;;;;;;5061687;28;20021;-84
2021/01/10 00:22:49;;;;;;;11.53;8.63;;;0.00;91.90;;;;;;5037762;28;20458;-84
2021/01/10 00:25:14;;;;;;;12.53;8.27;;;0.00;91.90;;;;;;5057633;28;20044;-84
2021/01/10 00:27:41;;;;;;;12.47;8.43;;;0.00;91.90;;;;;;5041459;28;20013;-84
2021/01/10 00:30:12;;;;;;;10.90;7.97;;;0.00;91.90;;;;;;5040394;28;20036;-84
2021/01/10 00:32:37;;;;;;;12.50;7.72;;;0.00;91.90;;;;;;5058120;28;20024;-84
2021/01/10 00:35:07;;;;;;;12.57;8.93;;;0.00;91.90;;;;;;5057971;28;20094;-84
2021/01/10 00:37:36;;;;;;;16.67;8.73;;;-0.10;91.80;;;;;;5075937;28;20075;-84
2021/01/10 00:40:03;;;;;;;13.87;8.50;;;-0.10;91.80;;;;;;5058334;28;20034;-84
2021/01/10 00:42:28;;;;;;;17.47;9.80;;;-0.10;91.80;;;;;;5058106;28;20028;-84
2021/01/10 00:44:54;;;;;;;14.80;8.40;;;-0.10;91.90;;;;;;5041579;28;20028;-84
2021/01/10 00:47:23;;;;;;;14.00;8.67;;;-0.10;91.90;;;;;;5057855;28;20021;-83
2021/01/10 00:49:49;;;;;;;14.60;8.17;;;-0.10;91.80;;;;;;5074870;28;20333;-84
2021/01/10 00:52:18;;;;;;;15.47;8.03;;;-0.10;91.80;;;;;;5041403;28;20040;-84
2021/01/10 00:54:44;;;;;;;13.87;9.40;;;-0.10;91.80;;;;;;5057843;28;20029;-83
2021/01/10 00:57:09;;;;;;;15.37;8.47;;;-0.20;91.80;;;;;;5041343;28;20024;-83
2021/01/10 00:59:39;;;;;;;15.73;8.70;;;-0.20;91.80;;;;;;5041589;28;20052;-84
2021/01/10 01:02:08;;;;;;;16.10;9.07;;;-0.10;91.90;;;;;;5059177;28;20036;-84
2021/01/10 01:04:33;;;;;;;15.97;8.60;;;-0.20;91.80;;;;;;5057685;28;20460;-84
2021/01/10 01:06:59;;;;;;;14.40;8.10;;;-0.20;91.90;;;;;;5041004;28;20035;-83
2021/01/10 01:09:27;;;;;;;13.73;8.30;;;-0.20;91.90;;;;;;5040778;28;20119;-83
2021/01/10 01:11:53;;;;;;;12.50;9.07;;;-0.10;91.90;;;;;;5041100;28;20028;-84
2021/01/10 01:14:19;;;;;;;12.07;7.73;;;-0.20;91.90;;;;;;5040918;28;20027;-84
2021/01/10 01:16:45;;;;;;;17.23;7.93;;;-0.20;91.90;;;;;;5057882;28;20024;-84
2021/01/10 01:19:12;;;;;;;14.40;8.10;;;-0.20;91.90;;;;;;5040114;28;20033;-84
2021/01/10 01:21:38;;;;;;;12.53;7.97;;;-0.20;91.90;;;;;;5057473;28;20062;-84
2021/01/10 01:24:05;;;;;;;11.03;8.00;;;-0.20;91.90;;;;;;5074042;28;20098;-84
2021/01/10 01:26:31;;;;;;;13.90;7.63;;;-0.20;91.90;;;;;;5074342;28;20452;-83
2021/01/10 01:28:59;;;;;;;12.73;7.90;;;-0.20;91.90;;;;;;5074272;28;20017;-84
2021/01/10 01:31:27;;;;;;;12.37;8.17;;;-0.20;91.90;;;;;;5073899;28;20020;-84
2021/01/10 01:33:54;;;;;;;12.63;7.97;;;-0.20;91.90;;;;;;5072819;28;20020;-84
2021/01/10 01:36:31;;;;;;;13.43;7.93;;;-0.30;91.90;;;;;;5057508;28;20170;-84
2021/01/10 01:38:59;;;;;;;13.20;8.13;;;-0.30;91.90;;;;;;5074119;28;20023;-84
2021/01/10 01:41:25;;;;;;;11.87;7.80;;;-0.30;91.90;;;;;;5073775;28;20555;-84
2021/01/10 01:43:52;;;;;;;12.07;8.10;;;-0.30;91.90;;;;;;5056883;28;20082;-84
2021/01/10 01:46:29;;;;;;;15.20;8.33;;;-0.30;91.90;;;;;;5057276;28;20078;-84
2021/01/10 01:48:57;;;;;;;16.63;8.07;;;-0.30;91.90;;;;;;5057168;28;20355;-84
2021/01/10 01:51:25;;;;;;;12.07;8.13;;;-0.30;91.90;;;;;;5056570;28;20479;-84
2021/01/10 01:53:53;;;;;;;11.73;7.13;;;-0.20;92.10;;;;;;5073150;28;20452;-84
2021/01/10 01:56:19;;;;;;;12.63;7.60;;;-0.20;92.00;;;;;;5056724;28;20035;-84
2021/01/10 01:59:01;;;;;;;11.77;7.60;;;-0.20;92.00;;;;;;5073680;28;20096;-84
2021/01/10 02:01:37;;;;;;;12.60;7.33;;;-0.20;92.00;;;;;;5074375;28;20448;-83
2021/01/10 02:04:16;;;;;;;;;;;;;;;;;;;;;
2021/01/10 02:06:50;;;;;;;13.23;8.53;;;-0.30;92.00;;;;;;5075328;28;20027;-84
2021/01/10 02:09:26;;;;;;;11.93;8.00;;;-0.30;92.00;;;;;;5072773;28;20361;-84
2021/01/10 02:11:56;;;;;;;16.40;7.50;;;-0.30;92.00;;;;;;5056216;28;20367;-84
2021/01/10 02:14:25;;;;;;;13.13;8.50;;;-0.30;92.00;;;;;;5072549;28;20013;-84
2021/01/10 02:16:56;;;;;;;17.03;8.13;;;-0.30;92.00;;;;;;5074634;28;20020;-84
2021/01/10 02:19:28;;;;;;;11.80;7.67;;;-0.30;92.00;;;;;;5055913;28;20116;-84
2021/01/10 02:22:01;;;;;;;13.67;7.90;;;-0.30;92.00;;;;;;5074003;28;20020;-84
2021/01/10 02:24:34;;;;;;;15.70;7.70;;;-0.30;91.90;;;;;;5072961;28;20040;-84
2021/01/10 02:27:03;;;;;;;14.73;7.80;;;-0.30;92.00;;;;;;5056141;28;20070;-84
2021/01/10 02:29:30;;;;;;;15.27;8.57;;;-0.30;92.00;;;;;;5055755;28;20013;-84
2021/01/10 02:32:01;;;;;;;13.23;7.87;;;-0.30;92.00;;;;;;5055746;28;20048;-84
2021/01/10 02:34:31;;;;;;;10.45;7.25;;;-0.30;92.00;;;;;;5055823;28;20020;-83
2021/01/10 02:37:15;;;;;;;11.83;7.73;;;-0.30;92.00;;;;;;5073826;28;20456;-84
2021/01/10 02:40:07;;;;;;;14.50;7.70;;;-0.30;92.00;;;;;;5073530;28;20773;-83
2021/01/10 02:42:47;;;;;;;11.13;7.43;;;-0.30;92.00;;;;;;5056226;28;20047;-84
2021/01/10 02:45:26;;;;;;;10.50;7.30;;;-0.30;92.00;;;;;;5073291;28;20025;-84
2021/01/10 02:47:54;;;;;;;12.37;7.60;;;-0.40;91.90;;;;;;5074394;28;20313;-84
2021/01/10 02:50:22;;;;;;;12.97;8.40;;;-0.30;91.90;;;;;;5072528;28;20452;-83
2021/01/10 02:52:48;;;;;;;14.20;8.10;;;-0.30;92.00;;;;;;5072508;28;20024;-84
2021/01/10 02:55:15;;;;;;;13.63;8.43;;;-0.40;91.90;;;;;;5072510;28;20532;-84
2021/01/10 02:57:45;;;;;;;12.53;8.40;;;-0.40;91.90;;;;;;5072419;28;20027;-84
2021/01/10 03:00:14;;;;;;;11.47;7.73;;;-0.40;91.90;;;;;;5072788;28;20059;-83
2021/01/10 03:02:40;;;;;;;13.07;7.87;;;-0.40;91.90;;;;;;5072455;28;20016;-84
2021/01/10 03:05:07;;;;;;;11.13;7.60;;;-0.40;91.90;;;;;;5055900;28;20023;-83
2021/01/10 03:07:37;;;;;;;13.57;7.43;;;-0.40;91.90;;;;;;5038794;28;20012;-83
2021/01/10 03:10:07;;;;;;;13.40;7.77;;;-0.40;91.90;;;;;;5055798;28;20020;-83
2021/01/10 03:12:35;;;;;;;18.43;9.17;;;-0.40;91.90;;;;;;5072071;28;20055;-83
2021/01/10 03:15:01;;;;;;;16.87;7.43;;;-0.40;91.90;;;;;;5055487;28;20016;-83
2021/01/10 03:17:35;;;;;;;14.03;8.53;;;-0.50;91.80;;;;;;5072672;28;20075;-83
2021/01/10 03:20:02;;;;;;;13.83;8.27;;;-0.50;91.90;;;;;;5073334;28;20024;-83
2021/01/10 03:22:28;;;;;;;14.03;7.77;;;-0.50;91.80;;;;;;5072208;28;20444;-83
2021/01/10 03:24:54;;;;;;;14.63;8.07;;;-0.50;91.80;;;;;;5073415;28;20049;-84
2021/01/10 03:27:20;;;;;;;13.20;8.10;;;-0.50;91.80;;;;;;5055477;28;20082;-84
2021/01/10 03:29:46;;;;;;;13.13;8.30;;;-0.60;91.80;;;;;;5055354;28;20459;-83
2021/01/10 03:32:11;;;;;;;13.20;8.33;;;-0.50;91.80;;;;;;5055216;28;20107;-83
2021/01/10 03:34:37;;;;;;;12.33;7.97;;;-0.60;91.80;;;;;;5072150;28;20110;-84
2021/01/10 03:37:06;;;;;;;13.80;8.20;;;-0.60;91.80;;;;;;5055300;28;20029;-84
2021/01/10 03:39:38;;;;;;;16.27;8.77;;;-0.60;91.80;;;;;;5072099;28;20060;-84
2021/01/10 03:42:04;;;;;;;15.27;8.48;;;-0.60;91.80;;;;;;5073013;28;20055;-84
2021/01/10 03:44:34;;;;;;;16.93;8.70;;;-0.60;91.80;;;;;;5072224;28;20039;-83
2021/01/10 03:47:00;;;;;;;12.07;7.85;;;-0.60;91.80;;;;;;5071712;28;20009;-84
2021/01/10 03:49:29;;;;;;;13.47;8.27;;;-0.60;91.80;;;;;;5055385;28;20035;-84
2021/01/10 03:52:00;;;;;;;14.17;8.20;;;-0.60;91.80;;;;;;5055143;28;20020;-84
2021/01/10 03:54:27;;;;;;;13.90;8.57;;;-0.60;91.80;;;;;;5055997;28;20075;-84
2021/01/10 03:56:55;;;;;;;11.73;8.03;;;-0.60;91.90;;;;;;5056502;28;20032;-84
2021/01/10 03:59:25;;;;;;;14.93;8.53;;;-0.60;91.90;;;;;;5059047;28;20032;-84
2021/01/10 04:01:51;;;;;;;12.63;7.97;;;-0.60;91.90;;;;;;5059217;28;20079;-84
2021/01/10 04:04:17;;;;;;;13.03;8.47;;;-0.50;92.00;;;;;;5058868;28;20020;-84
2021/01/10 04:06:43;;;;;;;14.07;8.57;;;-0.50;92.00;;;;;;5058570;28;20066;-84
2021/01/10 04:09:08;;;;;;;12.43;8.33;;;-0.50;92.30;;;;;;5058631;28;20357;-84
2021/01/10 04:11:34;;;;;;;11.30;7.80;;;-0.50;92.00;;;;;;5058374;28;20027;-84
2021/01/10 04:14:00;;;;;;;13.03;8.07;;;-0.50;92.10;;;;;;5058748;28;20021;-84
2021/01/10 04:16:26;;;;;;;11.87;7.40;;;-0.50;92.10;;;;;;5058731;28;20016;-84
2021/01/10 04:18:51;;;;;;;13.93;7.60;;;-0.40;92.10;;;;;;5042040;28;20031;-84
2021/01/10 04:21:17;;;;;;;13.70;8.37;;;-0.40;92.10;;;;;;5077125;28;20021;-84
2021/01/10 04:23:45;;;;;;;13.17;8.37;;;-0.40;92.10;;;;;;5058346;28;20040;-84
2021/01/10 04:26:11;;;;;;;14.93;7.70;;;-0.40;92.10;;;;;;5076487;28;20027;-84
2021/01/10 04:28:39;;;;;;;13.07;8.83;;;-0.40;92.10;;;;;;5058439;28;20020;-84
2021/01/10 04:31:08;;;;;;;13.37;8.10;;;-0.40;92.10;;;;;;5040220;28;20031;-84
2021/01/10 04:33:34;;;;;;;13.93;8.20;;;-0.40;92.10;;;;;;5076084;28;20025;-84
2021/01/10 04:36:00;;;;;;;12.67;8.00;;;-0.40;92.10;;;;;;5059027;28;20033;-84
2021/01/10 04:38:29;;;;;;;15.03;8.43;;;-0.40;92.10;;;;;;5057904;28;20368;-84
2021/01/10 04:40:56;;;;;;;12.53;7.90;;;-0.40;92.40;;;;;;5058130;28;20021;-84
2021/01/10 04:43:25;;;;;;;15.30;8.30;;;-0.40;92.10;;;;;;5041929;28;20441;-84
2021/01/10 04:45:54;;;;;;;13.43;8.63;;;-0.40;92.10;;;;;;5042252;28;20025;-84
2021/01/10 04:48:21;;;;;;;11.50;7.40;;;-0.40;92.10;;;;;;5041514;28;20028;-84
2021/01/10 04:50:47;;;;;;;14.77;8.20;;;-0.40;92.10;;;;;;5058403;28;20033;-84
2021/01/10 04:53:19;;;;;;;13.17;8.77;;;-0.40;92.10;;;;;;5057937;28;20028;-84
2021/01/10 04:55:48;;;;;;;;;;;-0.50;92.00;;;;;;5058187;28;20491;-84
2021/01/10 04:58:14;;;;;;;12.63;8.33;;;-0.40;92.10;;;;;;5074622;28;19907;-84
2021/01/10 05:00:42;;;;;;;13.40;7.80;;;-0.50;92.00;;;;;;5057933;28;20016;-84
2021/01/10 05:03:16;;;;;;;13.57;8.10;;;-0.50;92.00;;;;;;5041730;28;20166;-84
2021/01/10 05:05:49;;;;;;;14.27;8.13;;;-0.50;92.00;;;;;;5041735;28;20016;-84
2021/01/10 05:08:15;;;;;;;12.30;8.00;;;-0.50;92.00;;;;;;5057572;28;20474;-84
2021/01/10 05:10:44;;;;;;;12.67;8.27;;;-0.50;92.00;;;;;;5057624;28;20021;-84
2021/01/10 05:13:13;;;;;;;15.33;8.57;;;-0.50;92.00;;;;;;5040977;28;20021;-84
2021/01/10 05:15:48;;;;;;;15.37;7.97;;;-0.50;92.00;;;;;;5057628;28;20054;-84
2021/01/10 05:18:16;;;;;;;11.27;7.77;;;-0.50;92.00;;;;;;5057841;28;20020;-84
2021/01/10 05:20:52;;;;;;;12.03;7.67;;;-0.50;92.00;;;;;;5058193;28;20336;-84
2021/01/10 05:23:17;;;;;;;13.37;8.20;;;-0.50;92.00;;;;;;5057171;28;20016;-84
2021/01/10 05:25:43;;;;;;;10.47;7.73;;;-0.50;92.00;;;;;;5057368;28;20023;-84
2021/01/10 05:28:10;;;;;;;11.87;7.50;;;-0.60;92.20;;;;;;5057515;28;20016;-84
2021/01/10 05:30:36;;;;;;;12.90;8.07;;;-0.50;92.00;;;;;;5075660;28;20521;-84
2021/01/10 05:33:11;;;;;;;14.73;8.87;;;-0.50;92.00;;;;;;5058040;28;20013;-84
2021/01/10 05:35:56;;;;;;;15.20;8.63;;;-0.60;92.00;;;;;;5041401;28;20021;-84
2021/01/10 05:38:26;;;;;;;14.67;8.37;;;-0.60;92.00;;;;;;5075125;28;20056;-84
2021/01/10 05:40:57;;;;;;;12.97;7.97;;;-0.60;91.90;;;;;;5057381;28;20364;-84
2021/01/10 05:43:26;;;;;;;15.07;8.25;;;-0.60;91.90;;;;;;5056887;28;20555;-83
2021/01/10 05:45:53;;;;;;;12.40;8.33;;;-0.60;92.00;;;;;;5057060;28;20017;-84
2021/01/10 05:48:22;;;;;;;15.70;8.50;;;-0.60;92.00;;;;;;5056683;28;20036;-83
2021/01/10 05:50:56;;;;;;;12.20;8.43;;;-0.60;92.00;;;;;;5057238;28;20047;-84
2021/01/10 05:53:23;;;;;;;13.40;8.17;;;-0.60;92.00;;;;;;5057366;28;20078;-84
2021/01/10 05:55:58;;;;;;;15.20;8.53;;;-0.60;92.00;;;;;;5057226;28;20444;-84
2021/01/10 05:58:28;;;;;;;13.60;8.43;;;-0.60;92.00;;;;;;5056842;28;20123;-84
2021/01/10 06:00:54;;;;;;;13.70;8.73;;;-0.60;92.00;;;;;;5056725;28;20017;-85
2021/01/10 06:03:30;;;;;;;13.67;8.13;;;-0.60;92.00;;;;;;5039973;28;20020;-84
2021/01/10 06:06:04;;;;;;;15.50;8.60;;;-0.50;92.10;;;;;;5074435;28;20013;-84
2021/01/10 06:08:38;;;;;;;15.83;9.57;;;-0.60;92.00;;;;;;5040201;28;20020;-84
2021/01/10 06:11:23;;;;;;;13.90;9.40;;;-0.60;92.10;;;;;;5056977;28;20063;-85
2021/01/10 06:13:55;;;;;;;16.03;8.90;;;-0.50;92.10;;;;;;5056336;28;20107;-84
2021/01/10 06:16:31;;;;;;;15.43;8.30;;;-0.50;92.10;;;;;;5056235;28;20451;-85
2021/01/10 06:19:10;;;;;;;13.03;8.83;;;-0.50;92.20;;;;;;5051137;28;20020;-84
2021/01/10 06:21:36;;;;;;;14.70;8.27;;;-0.40;92.20;;;;;;5058174;28;20028;-84
2021/01/10 06:24:03;;;;;;;16.53;9.40;;;-0.40;92.30;;;;;;5049529;28;20041;-84
2021/01/10 06:26:33;;;;;;;15.77;8.60;;;-0.40;92.30;;;;;;5036586;28;20033;-84
2021/01/10 06:29:01;;;;;;;14.83;8.20;;;-0.40;92.30;;;;;;5036037;28;20017;-84
2021/01/10 06:31:50;;;;;;;12.47;8.20;;;-0.40;92.30;;;;;;5036146;28;20028;-83
2021/01/10 06:34:20;;;;;;;13.60;8.40;;;-0.30;92.30;;;;;;5033533;28;20345;-85
2021/01/10 06:36:47;;;;;;;11.63;7.93;;;-0.30;92.30;;;;;;5036472;28;20111;-85
2021/01/10 06:39:26;;;;;;;13.13;8.20;;;-0.30;92.40;;;;;;5035935;28;20024;-85
2021/01/10 06:42:06;;;;;;;12.80;8.50;;;-0.30;92.30;;;;;;5036596;28;20067;-85
2021/01/10 06:44:41;;;;;;;14.27;8.40;;;-0.20;92.40;;;;;;5020450;28;20017;-85
2021/01/10 06:47:20;;;;;;;11.53;7.73;;;-0.20;92.40;;;;;;5035848;28;20016;-84
2021/01/10 06:49:49;;;;;;;13.00;8.83;;;-0.20;92.40;;;;;;5036685;28;20032;-84
2021/01/10 06:52:20;;;;;;;11.30;7.77;;;-0.10;92.40;;;;;;5035842;28;20078;-83
2021/01/10 06:54:48;;;;;;;13.45;8.30;;;-0.10;92.40;;;;;;5053657;28;20029;-85
2021/01/10 06:57:23;;;;;;;12.83;8.17;;;-0.10;92.40;;;;;;5035509;28;20031;-84
2021/01/10 06:59:58;;;;;;;12.83;8.33;;;-0.10;92.40;;;;;;5035953;28;20025;-84
2021/01/10 07:02:25;;;;;;;15.63;8.83;;;-0.10;92.40;;;;;;5036010;28;20453;-84
2021/01/10 07:04:59;;;;;;;12.03;8.03;;;-0.10;92.40;;;;;;5035678;28;20021;-84
2021/01/10 07:07:39;;;;;;;13.23;8.50;;;0.00;92.50;;;;;;5035837;28;20029;-84
2021/01/10 07:10:12;;;;;;;16.20;8.80;;;0.00;92.40;;;;;;5035747;28;20120;-84
2021/01/10 07:12:41;;;;;;;12.47;7.90;;;0.00;92.40;;;;;;5036573;28;20047;-84
2021/01/10 07:15:34;;;;;;;12.27;8.10;;;0.00;92.40;;;;;;5036520;28;20024;-84
2021/01/10 07:18:04;;;;;;;14.60;8.20;;;0.10;92.40;;;;;;5036617;28;20082;-84
2021/01/10 07:20:32;;;;;;;14.13;8.47;;;0.10;92.50;;;;;;5053452;28;20032;-84
2021/01/10 07:23:30;;;;;;;11.60;8.17;;;0.10;92.40;;;;;;5035008;28;20267;-84
2021/01/10 07:25:58;;;;;;;14.07;8.67;;;0.10;92.50;;;;;;5068260;28;20036;-84
2021/01/10 07:28:30;;;;;;;13.33;8.57;;;0.10;92.50;;;;;;5055735;28;20051;-84
2021/01/10 07:31:09;;;;;;;14.60;8.80;;;0.10;92.50;;;;;;5075026;28;20456;-84
2021/01/10 07:33:37;;;;;;;14.37;8.50;;;0.20;92.50;;;;;;5059291;28;20115;-84
2021/01/10 07:36:08;;;;;;;13.33;8.73;;;0.20;92.50;;;;;;5043052;28;20475;-84
2021/01/10 07:38:42;;;;;;;15.52;9.05;;;0.10;92.50;;;;;;5044546;28;20056;-83
2021/01/10 07:41:23;;;;;;;16.23;9.03;;;0.20;92.50;;;;;;5059491;28;20024;-84
2021/01/10 07:43:56;;;;;;;12.38;8.40;;;0.20;92.50;;;;;;5059221;28;20024;-84
2021/01/10 07:46:49;;;;;;;15.37;9.53;;;0.20;92.50;;;;;;5059301;28;20030;-83
2021/01/10 07:49:29;;;;;;;14.57;8.43;;;0.30;92.60;;;;;;5076783;28;20028;-85
2021/01/10 07:51:56;;;;;;;14.73;9.13;;;0.30;92.60;;;;;;5059215;28;20020;-85
2021/01/10 07:55:07;;;;;;;12.63;8.77;;;0.30;92.60;;;;;;5026291;28;20055;-85
2021/01/10 07:57:36;;;;;;;15.83;9.30;;;0.30;92.60;;;;;;5070846;28;20032;-84
2021/01/10 08:00:28;;;;;;;13.50;9.17;;;0.30;92.60;;;;;;5058965;28;20020;-85
2021/01/10 08:02:59;;;;;;;12.07;8.67;;;0.40;92.60;;;;;;5059107;28;20113;-85
2021/01/10 08:05:29;;;;;;;14.23;9.13;;;0.40;92.60;;;;;;5059121;28;20020;-84
2021/01/10 08:08:09;;;;;;;11.82;9.35;;;0.40;92.60;;;;;;5076604;28;20021;-85
2021/01/10 08:10:48;;;;;;;13.82;8.82;;;0.40;92.70;;;;;;5075150;28;20051;-84
2021/01/10 08:13:26;;;;;;;16.87;8.97;;;0.50;92.70;;;;;;5058662;28;20023;-84
2021/01/10 08:15:58;;;;;;;14.77;9.80;;;0.50;92.70;;;;;;5058772;28;20016;-84
2021/01/10 08:18:33;;;;;;;12.52;8.90;;;0.50;92.70;;;;;;5059252;28;20027;-85
2021/01/10 08:21:02;;;;;;;13.73;9.47;;;0.50;92.70;;;;;;5058464;28;20013;-85
2021/01/10 08:23:31;;;;;;;16.33;10.00;;;0.50;92.70;;;;;;5058762;28;20017;-85
2021/01/10 08:26:20;;;;;;;14.83;9.67;;;0.50;92.70;;;;;;5058107;28;20051;-84
2021/01/10 08:28:57;;;;;;;13.53;9.73;;;0.60;92.70;;;;;;5058802;28;20028;-85
2021/01/10 08:31:46;;;;;;;13.60;10.33;;;0.60;92.70;;;;;;5058788;28;20359;-84
2021/01/10 08:34:19;;;;;;;13.67;9.70;;;0.60;92.70;;;;;;5058358;28;20028;-84
2021/01/10 08:36:51;;;;;;;14.83;10.37;;;0.60;92.80;;;;;;5026557;28;20021;-85
2021/01/10 08:39:19;;;;;;;13.77;10.00;;;0.60;92.80;;;;;;5058344;28;20104;-85
2021/01/10 08:42:03;;;;;;;15.65;10.63;;;0.70;92.80;;;;;;5057936;28;20021;-86
2021/01/10 08:44:34;;;;;;;17.33;10.40;;;0.70;92.80;;;;;;5058262;28;20114;-85
2021/01/10 08:47:24;;;;;;;13.90;9.67;;;0.70;92.80;;;;;;5058018;28;20020;-85
2021/01/10 08:50:03;;;;;;;16.40;10.90;;;0.70;92.80;;;;;;5075885;28;20032;-86
2021/01/10 08:52:53;;;;;;;16.83;10.80;;;0.70;92.80;;;;;;5055431;28;20021;-85
2021/01/10 08:55:33;;;;;;;15.33;10.40;;;0.80;92.80;;;;;;5075598;28;20158;-86
2021/01/10 08:58:19;;;;;;;;;;;;;;;;;;;;;
2021/01/10 09:00:55;;;;;;;13.50;10.20;;;0.80;92.90;;;;;;5076550;28;20021;-86
2021/01/10 09:10:17;;;;;;;14.07;10.83;;;0.90;92.80;;;;;;4994846;28;20041;-87
2021/01/10 09:13:07;;;;;;;15.10;10.97;;;0.90;93.10;;;;;;5058626;28;20020;-87
2021/01/10 09:15:43;;;;;;;17.02;10.88;;;0.90;92.80;;;;;;5057852;28;20008;-88
2021/01/10 09:18:24;;;;;;;15.13;10.73;;;0.90;92.80;;;;;;5041383;28;20475;-86
2021/01/10 09:24:16;;;;;;;15.47;10.90;;;1.00;92.90;;;;;;5067624;28;20118;-88
2021/01/10 09:27:41;;;;;;;14.10;10.53;;;1.00;92.90;;;;;;5039972;28;20036;-87
2021/01/10 09:37:49;;;;;;;15.60;10.90;;;1.10;92.90;;;;;;4985449;28;20111;-87
2021/01/10 10:11:37;;;;;;;;;;;;;;;;;;;;;
2021/01/10 10:17:48;;;;;;;;;;;;;;;;;;;;;
2021/01/10 10:21:07;;;;;;;17.33;11.23;;;1.60;93.00;;;;;;4959449;28;20044;-88
2021/01/10 10:41:31;;;;;;;;;;;;;;;;;;;;;
2021/01/10 11:12:42;;;;;;;;;;;;;;;;;;;;;
2021/01/10 11:15:34;;;;;;;;;;;;;;;;;;;;;
2021/01/10 11:18:38;;;;;;;16.60;11.90;;;2.30;92.90;;;;;;5036789;28;20469;-88
2021/01/10 11:21:36;;;;;;;15.48;11.57;;;2.40;92.90;;;;;;5034442;28;20025;-88
2021/01/10 11:24:46;;;;;;;14.23;11.02;;;2.40;92.90;;;;;;5017312;28;20040;-88
2021/01/10 11:31:55;;;;;;;;;;;;;;;;;;;;;
2021/01/10 11:34:55;;;;;;;;;;;;;;;;;;;;;
2021/01/10 11:37:45;;;;;;;;;;;;;;;;;;;;;
2021/01/10 11:41:00;;;;;;;13.68;10.55;;;2.60;93.00;;;;;;5079162;28;20024;-87
2021/01/10 11:44:08;;;;;;;;;;;;;;;;;;;;;
2021/01/10 11:47:10;;;;;;;14.38;10.27;;;2.80;93.00;;;;;;5087368;28;20070;-88
2021/01/10 12:07:10;;;;;;;;;;;;;;;;;;;;;
2021/01/10 12:09:48;;;;;;;;;;;;;;;;;;;;;
2021/01/10 12:26:29;;;;;;;11.48;9.40;;;3.60;92.50;;;;;;4938358;29;20298;-87
2021/01/10 12:50:36;;;;;;;8.93;6.97;;;3.90;92.10;;;;;;4897130;29;20097;-87
2021/01/10 12:53:20;;;;;;;;;;;;;;;;;;;;;
2021/01/10 13:02:23;;;;;;;9.77;6.82;;;3.90;92.00;;;;;;5009134;28;20034;-88
2021/01/10 13:05:19;;;;;;;9.57;6.43;;;3.90;91.90;;;;;;5013821;28;20021;-89
2021/01/10 13:08:16;;;;;;;9.43;6.85;;;4.00;91.90;;;;;;5022639;28;20056;-88
2021/01/10 13:10:57;;;;;;;8.80;6.60;;;4.00;91.90;;;;;;5020534;28;20044;-87
2021/01/10 13:13:27;;;;;;;8.98;5.78;;;4.00;91.80;;;;;;5023066;28;20056;-85
2021/01/10 13:16:15;;;;;;;8.65;6.43;;;4.10;91.80;;;;;;5041581;28;20032;-87
2021/01/10 13:19:42;;;;;;;;;;;;;;;;;;;;;
2021/01/10 13:22:19;;;;;;;8.90;6.10;;;4.10;91.70;;;;;;5057185;28;20036;-88
2021/01/10 13:34:50;;;;;;;10.13;7.18;;;4.20;91.60;;;;;;5013600;28;20081;-87
2021/01/10 13:37:29;;;;;;;10.40;6.40;;;4.20;91.60;;;;;;4994935;28;20054;-87
2021/01/10 13:40:33;;;;;;;8.07;5.47;;;4.30;91.60;;;;;;4996743;28;20113;-88
2021/01/10 13:46:37;;;;;;;7.75;5.93;;;4.40;91.60;;;;;;5013906;28;20026;-87
2021/01/10 13:49:17;;;;;;;9.77;6.10;;;4.50;91.60;;;;;;4996892;28;20054;-86
2021/01/10 13:52:49;;;;;;;9.63;5.95;;;4.50;91.50;;;;;;4997081;28;20053;-87
2021/01/10 13:55:18;;;;;;;9.15;5.72;;;4.40;91.30;;;;;;5041088;28;20033;-87
2021/01/10 13:58:39;;;;;;;;;;;;;;;;;;;;;
2021/01/10 14:05:27;;;;;;;;;;;;;;;;;;;;;
2021/01/10 14:08:46;;;;;;;;;;;;;;;;;;;;;
2021/01/10 14:12:12;;;;;;;;;;;;;;;;;;;;;
2021/01/10 14:18:18;;;;;;;8.43;5.75;;;4.50;91.20;;;;;;5012970;28;20474;-86
2021/01/10 14:21:38;;;;;;;;;;;;;;;;;;;;;
2021/01/10 14:24:30;;;;;;;8.50;5.00;;;4.50;91.10;;;;;;5013314;28;20034;-88
2021/01/10 14:30:37;;;;;;;7.85;5.10;;;4.50;91.00;;;;;;5074739;28;20086;-87
2021/01/10 14:33:44;;;;;;;;;;;;;;;;;;;;;
2021/01/10 14:47:12;;;;;;;;;;;;;;;;;;;;;
2021/01/10 14:50:10;;;;;;;10.90;4.85;;;4.30;90.80;;;;;;4998357;28;20307;-88
2021/01/10 14:52:56;;;;;;;;;;;;;;;;;;;;;
2021/01/10 14:55:58;;;;;;;;;;;;;;;;;;;;;
2021/01/10 14:58:45;;;;;;;;;;;;;;;;;;;;;
2021/01/10 15:01:57;;;;;;;9.57;7.53;;;4.20;90.80;;;;;;5016660;28;20029;-87
2021/01/10 15:04:33;;;;;;;9.25;6.10;;;4.20;90.80;;;;;;5015231;28;20448;-87
2021/01/10 15:17:24;;;;;;;7.60;4.72;;;4.10;90.70;;;;;;4981608;28;20604;-87
2021/01/10 15:20:26;;;;;;;8.25;5.55;;;4.10;90.80;;;;;;5038940;28;20033;-89
2021/01/10 15:23:33;;;;;;;;;;;;;;;;;;;;;
2021/01/10 15:26:36;;;;;;;6.13;4.93;;;4.10;90.70;;;;;;4973026;28;20489;-88
2021/01/10 15:39:47;;;;;;;;;;;;;;;;;;;;;
2021/01/10 15:42:39;;;;;;;;;;;;;;;;;;;;;
2021/01/10 15:52:43;;;;;;;;;;;;;;;;;;;;;
2021/01/10 16:01:28;;;;;;;7.65;5.28;;;4.00;90.70;;;;;;5037507;28;20033;-87
2021/01/10 16:04:28;;;;;;;7.78;5.38;;;4.00;91.00;;;;;;5021133;28;20124;-87
2021/01/10 16:07:26;;;;;;;7.65;5.40;;;4.00;90.70;;;;;;5021423;28;20061;-87
2021/01/10 16:13:39;;;;;;;;;;;;;;;;;;;;;
2021/01/10 16:16:20;;;;;;;7.18;5.63;;;3.90;90.80;;;;;;5021602;28;20021;-87
2021/01/10 16:18:52;;;;;;;8.25;5.60;;;3.90;90.80;;;;;;5005092;28;20060;-87
2021/01/10 16:21:20;;;;;;;7.82;5.25;;;4.00;90.80;;;;;;5019663;28;20030;-87
2021/01/10 16:24:28;;;;;;;8.25;6.20;;;4.00;90.80;;;;;;5018909;28;20064;-88
2021/01/10 16:27:23;;;;;;;;;;;;;;;;;;;;;
2021/01/10 16:33:34;;;;;;;7.63;5.80;;;4.00;90.80;;;;;;5022491;28;20021;-86
2021/01/10 16:36:03;;;;;;;7.40;5.55;;;4.00;90.80;;;;;;5020569;28;20029;-86
2021/01/10 16:45:38;;;;;;;7.95;6.38;;;4.00;90.80;;;;;;4983687;28;20038;-86
2021/01/10 16:49:06;;;;;;;;;;;;;;;;;;;;;
2021/01/10 16:52:09;;;;;;;9.07;6.28;;;4.00;90.80;;;;;;4995478;28;20026;-89
2021/01/10 16:55:32;;;;;;;;;;;;;;;;;;;;;
2021/01/10 16:58:30;;;;;;;7.50;5.63;;;4.00;90.90;;;;;;4999424;28;20030;-87
2021/01/10 17:01:06;;;;;;;;;;;;;;;;;;;;;
2021/01/10 17:03:58;;;;;;;;;;;;;;;;;;;;;
2021/01/10 17:06:40;;;;;;;14.07;8.43;;;3.90;90.80;;;;;;5056876;28;20024;-89
2021/01/10 17:09:29;;;;;;;18.00;9.88;;;3.90;90.80;;;;;;5022321;28;20041;-86
2021/01/10 17:15:21;;;;;;;9.80;7.07;;;4.00;90.90;;;;;;5041336;28;20147;-88
2021/01/10 17:17:57;;;;;;;8.88;6.80;;;3.90;90.80;;;;;;5055358;28;20025;-86
2021/01/10 17:20:35;;;;;;;;;;;;;;;;;;;;;
2021/01/10 17:23:26;;;;;;;8.82;6.57;;;3.90;90.90;;;;;;5040495;28;20021;-88
2021/01/10 17:25:57;;;;;;;8.88;6.57;;;3.90;90.90;;;;;;5037627;28;20019;-87
2021/01/10 17:28:44;;;;;;;;;;;;;;;;;;;;;
2021/01/10 17:34:19;;;;;;;;;;;;;;;;;;;;;
2021/01/10 17:36:48;;;;;;;8.43;6.78;;;3.90;90.80;;;;;;5055476;28;20032;-87
2021/01/10 17:39:43;;;;;;;12.73;6.93;;;3.90;91.10;;;;;;5038073;28;20425;-87
2021/01/10 17:42:20;;;;;;;9.75;7.28;;;3.90;90.90;;;;;;5037213;28;20021;-88
2021/01/10 17:44:53;;;;;;;9.02;6.75;;;3.90;90.90;;;;;;5036991;28;20025;-88
2021/01/10 17:47:28;;;;;;;9.43;7.05;;;3.90;90.90;;;;;;5021942;28;20453;-87
2021/01/10 17:50:17;;;;;;;8.05;6.60;;;3.90;90.90;;;;;;5037254;28;20029;-86
2021/01/10 17:52:55;;;;;;;9.93;7.15;;;3.90;90.90;;;;;;5037312;28;20017;-87
2021/01/10 17:55:32;;;;;;;10.68;7.28;;;3.90;91.00;;;;;;5004884;28;20039;-88
2021/01/10 17:58:03;;;;;;;10.13;7.13;;;3.90;90.90;;;;;;5037922;28;20044;-88
2021/01/10 18:00:56;;;;;;;8.93;7.40;;;3.90;90.90;;;;;;5021143;28;20037;-88
2021/01/10 18:03:39;;;;;;;9.25;7.53;;;3.90;90.90;;;;;;5021981;28;20056;-87
2021/01/10 18:06:35;;;;;;;12.60;7.95;;;3.80;90.90;;;;;;5022606;28;20047;-87
2021/01/10 18:09:25;;;;;;;;;;;;;;;;;;;;;
2021/01/10 18:12:05;;;;;;;10.75;7.55;;;3.80;90.90;;;;;;5039400;28;20029;-86
2021/01/10 18:15:02;;;;;;;11.55;8.10;;;3.80;90.90;;;;;;5038478;28;20049;-87
2021/01/10 18:17:57;;;;;;;11.77;7.57;;;3.80;90.90;;;;;;5037380;28;20104;-87
2021/01/10 18:20:52;;;;;;;10.68;7.25;;;3.80;90.90;;;;;;5019706;28;20131;-87
2021/01/10 18:23:45;;;;;;;12.10;8.13;;;3.80;90.90;;;;;;5039946;28;20039;-86
2021/01/10 18:26:54;;;;;;;10.05;8.02;;;3.80;90.90;;;;;;5029538;28;20036;-87
2021/01/10 18:30:01;;;;;;;14.85;9.85;;;3.80;90.90;;;;;;5046868;28;20036;-86
2021/01/10 18:36:24;;;;;;;;;;;3.80;90.90;;;;;;5003595;28;20036;-86
2021/01/10 18:42:16;;;;;;;15.02;10.40;;;3.80;90.90;;;;;;5054214;28;20500;-87